createdAt,value
2023-08-14T00:01:30.873Z,4.9
2023-08-14T00:03:37.407Z,5.6
2023-08-14T00:05:40.818Z,5.6
2023-08-14T00:07:44.210Z,5.3
2023-08-14T00:08:47.471Z,5.3
2023-08-14T00:29:24.951Z,5.3
2023-08-14T00:31:31.527Z,5.2
2023-08-14T00:33:34.901Z,5.5
2023-08-14T00:35:38.355Z,6.6
2023-08-14T00:37:41.803Z,5.5
2023-08-14T00:41:48.695Z,5.7
2023-08-14T00:43:52.137Z,5
2023-08-14T00:48:02.126Z,4.8
2023-08-14T00:50:05.541Z,6.9
2023-08-14T00:52:09.221Z,6.2
2023-08-14T00:54:12.409Z,5.4
2023-08-14T00:56:15.867Z,5.6
2023-08-14T00:58:19.310Z,5
2023-08-14T01:00:25.923Z,5.7
2023-08-14T01:04:32.761Z,4.9
2023-08-14T01:05:36.022Z,5.1
2023-08-14T01:09:42.896Z,5.1
2023-08-14T01:13:52.858Z,5.1
2023-08-14T01:15:56.344Z,4.6
2023-08-14T01:17:59.821Z,5
2023-08-14T01:20:03.246Z,5.4
2023-08-14T01:22:06.713Z,5.3
2023-08-14T01:24:10.142Z,5.9
2023-08-14T01:28:20.109Z,6.9
2023-08-14T01:30:23.683Z,5.4
2023-08-14T01:32:27.031Z,5.6
2023-08-14T01:34:30.481Z,5.7
2023-08-14T01:36:33.950Z,5.9
2023-08-14T01:40:40.875Z,5.2
2023-08-14T01:42:47.401Z,5.4
2023-08-14T01:48:57.810Z,5.9
2023-08-14T01:53:04.606Z,5.2
2023-08-14T01:55:08.081Z,5.4
2023-08-14T01:57:14.651Z,6.3
2023-08-14T01:59:18.105Z,4.8
2023-08-14T02:01:21.550Z,4.4
2023-08-14T02:18:55.476Z,5.3
2023-08-14T02:20:58.911Z,5.9
2023-08-14T02:23:02.359Z,5.2
2023-08-14T02:25:08.927Z,5.2
2023-08-14T02:27:12.364Z,5.7
2023-08-14T02:31:19.309Z,5.7
2023-08-14T02:33:22.724Z,6.9
2023-08-14T02:37:29.627Z,5.7
2023-08-14T02:39:36.217Z,6.7
2023-08-14T02:41:39.605Z,7.6
2023-08-14T02:43:43.100Z,7
2023-08-14T02:45:46.561Z,6.8
2023-08-14T02:47:50.046Z,6.7
2023-08-14T02:49:53.413Z,7.4
2023-08-14T02:51:56.890Z,5.9
2023-08-14T02:54:03.423Z,6.2
2023-08-14T03:15:01.260Z,7.2
2023-08-14T03:17:04.701Z,7.6
2023-08-14T03:19:08.163Z,7.6
2023-08-14T03:21:14.728Z,8
2023-08-14T03:23:18.175Z,7.5
2023-08-14T03:25:21.651Z,7.8
2023-08-14T03:27:25.108Z,8.2
2023-08-14T03:31:32.003Z,7.5
2023-08-14T03:33:35.488Z,7.1
2023-08-14T03:37:45.506Z,8
2023-08-14T03:39:48.996Z,7.5
2023-08-14T03:41:52.450Z,7
2023-08-14T03:43:55.887Z,7.2
2023-08-14T03:45:59.435Z,6.7
2023-08-14T03:48:02.911Z,7.4
2023-08-14T03:50:09.350Z,7.3
2023-08-14T03:52:12.992Z,7.3
2023-08-14T03:54:16.322Z,7.6
2023-08-14T03:55:19.591Z,8.7
2023-08-14T03:59:26.541Z,8
2023-08-14T04:01:30.014Z,7.8
2023-08-14T04:03:36.642Z,8.3
2023-08-14T04:07:43.500Z,8.6
2023-08-14T04:09:46.981Z,8.5
2023-08-14T04:13:53.947Z,8.8
2023-08-14T04:15:57.408Z,9.1
2023-08-14T04:18:04.008Z,8.2
2023-08-14T04:20:07.456Z,9.2
2023-08-14T04:22:10.940Z,9.4
2023-08-14T04:24:14.399Z,9.4
2023-08-14T04:26:17.921Z,9.3
2023-08-14T04:30:24.838Z,9.8
2023-08-14T04:32:31.435Z,10.5
2023-08-14T04:36:38.351Z,9.3
2023-08-14T04:42:48.808Z,10.7
2023-08-14T04:52:09.058Z,11.4
2023-08-14T04:54:12.586Z,11.7
2023-08-14T04:56:16.036Z,10.6
2023-08-14T04:58:21.929Z,10.8
2023-08-14T05:00:26.081Z,11.6
2023-08-14T05:02:29.561Z,11.1
2023-08-14T05:04:33.067Z,11.6
2023-08-14T05:06:36.510Z,12.8
2023-08-14T05:19:00.376Z,12.6
2023-08-14T05:31:24.330Z,14.7
2023-08-14T05:37:34.611Z,14.3
2023-08-14T05:39:38.087Z,14.2
2023-08-14T05:41:41.518Z,14.4
2023-08-14T05:43:48.059Z,15.5
2023-08-14T05:45:51.576Z,14.4
2023-08-14T05:57:15.153Z,12
2023-08-14T06:01:22.088Z,12.6
2023-08-14T06:05:28.930Z,12.7
2023-08-14T06:11:42.290Z,10.9
2023-08-14T06:13:45.754Z,12
2023-08-14T06:21:59.436Z,9.7
2023-08-14T06:24:02.868Z,9.9
2023-08-14T06:28:12.804Z,9.4
2023-08-14T06:30:16.234Z,8
2023-08-14T06:32:19.938Z,7.9
2023-08-14T06:34:23.068Z,8.5
2023-08-14T06:38:29.855Z,12.6
2023-08-14T06:42:39.715Z,8.3
2023-08-14T06:44:43.109Z,8.5
2023-08-14T06:47:01.017Z,10
2023-08-14T06:49:04.378Z,9
2023-08-14T06:51:07.796Z,9.1
2023-08-14T06:59:24.488Z,8.4
2023-08-14T07:01:27.869Z,8
2023-08-14T07:03:31.409Z,7.4
2023-08-14T07:05:34.633Z,8.1
2023-08-14T07:07:41.145Z,8.7
2023-08-14T07:09:44.537Z,8.3
2023-08-14T07:11:47.881Z,8.2
2023-08-14T07:13:51.288Z,7.6
2023-08-14T07:15:54.662Z,7.6
2023-08-14T07:17:58.108Z,8.2
2023-08-14T07:20:01.287Z,8.3
2023-08-14T07:22:07.784Z,7.6
2023-08-14T07:28:17.676Z,7
2023-08-14T07:30:20.979Z,7.1
2023-08-14T07:32:24.271Z,5.7
2023-08-14T07:34:27.483Z,5
2023-08-14T07:36:34.939Z,7
2023-08-14T07:38:36.939Z,7.3
2023-08-14T07:40:40.186Z,6.5
2023-08-14T07:41:43.305Z,7.7
2023-08-14T07:45:49.764Z,7.5
2023-08-14T07:49:59.158Z,6.7
2023-08-14T07:52:02.432Z,6.9
2023-08-14T07:54:05.574Z,6.1
2023-08-14T07:56:08.741Z,6.3
2023-08-14T08:00:15.248Z,6.4
2023-08-14T08:06:27.798Z,4.8
2023-08-14T08:12:37.354Z,5.9
2023-08-14T08:14:41.123Z,6.1
2023-08-14T08:16:43.673Z,4.7
2023-08-14T08:18:49.882Z,5.7
2023-08-14T08:22:56.220Z,4.8
2023-08-14T08:24:59.383Z,6.2
2023-08-14T08:29:05.708Z,4.9
2023-08-14T08:37:21.340Z,3.6
2023-08-14T08:38:24.438Z,3.5
2023-08-14T08:40:27.593Z,3.7
2023-08-14T08:42:30.735Z,3.7
2023-08-14T08:44:37.011Z,3.2
2023-08-14T08:46:44.160Z,4
2023-08-14T08:48:43.196Z,2.6
2023-08-14T08:50:46.180Z,3
2023-08-14T08:52:51.660Z,3.9
2023-08-14T08:54:52.322Z,2.4
2023-08-14T08:56:56.974Z,3
2023-08-14T08:58:59.986Z,3.8
2023-08-14T09:05:12.203Z,3.8
2023-08-14T09:07:15.245Z,3.7
2023-08-14T09:09:18.300Z,2.7
2023-08-14T09:11:21.348Z,3.9
2023-08-14T09:13:31.660Z,4.5
2023-08-14T09:15:33.231Z,2.7
2023-08-14T09:34:00.685Z,2.5
2023-08-14T09:37:06.731Z,2.4
2023-08-14T09:39:09.738Z,2.6
2023-08-14T09:45:21.877Z,2.9
2023-08-14T09:47:24.972Z,2.3
2023-08-14T09:49:27.865Z,2.7
2023-08-14T09:51:30.878Z,2.2
2023-08-14T09:53:33.877Z,2.3
2023-08-14T09:55:36.908Z,1.9
2023-08-14T09:57:42.992Z,2.7
2023-08-14T09:59:45.935Z,2.7
2023-08-14T10:01:49.017Z,2.7
2023-08-14T10:03:51.944Z,2
2023-08-14T10:10:00.921Z,2.1
2023-08-14T10:14:09.978Z,2.7
2023-08-14T10:16:12.990Z,2.6
2023-08-14T10:18:15.956Z,2.7
2023-08-14T10:20:18.884Z,2.9
2023-08-14T10:22:22.078Z,2.6
2023-08-14T10:28:33.911Z,2.3
2023-08-14T10:30:36.912Z,1.6
2023-08-14T10:33:00.232Z,2.1
2023-08-14T10:35:03.185Z,2.1
2023-08-14T10:37:06.109Z,2.5
2023-08-14T10:41:15.065Z,2.3
2023-08-14T10:43:17.978Z,3.2
2023-08-14T10:45:20.918Z,2.3
2023-08-14T10:47:23.849Z,2
2023-08-14T10:49:26.770Z,2.9
2023-08-14T10:51:29.695Z,1.7
2023-08-14T10:53:35.668Z,2.1
2023-08-14T10:57:41.515Z,2.2
2023-08-14T11:01:47.388Z,2.4
2023-08-14T11:03:50.278Z,1.6
2023-08-14T11:05:53.224Z,1.6
2023-08-14T11:10:04.686Z,1.1
2023-08-14T11:14:07.913Z,2
2023-08-14T11:16:10.863Z,2
2023-08-14T11:20:16.672Z,1.6
2023-08-14T11:22:22.659Z,1.7
2023-08-14T11:26:28.470Z,1.4
2023-08-14T11:27:31.443Z,1.4
2023-08-14T11:29:34.364Z,2.1
2023-08-14T11:31:41.722Z,1.6
2023-08-14T11:33:40.127Z,1.3
2023-08-14T11:35:46.967Z,1.6
2023-08-14T11:37:48.949Z,0.9
2023-08-14T11:39:51.820Z,1.8
2023-08-14T11:50:09.043Z,1.8
2023-08-14T11:52:11.858Z,1.9
2023-08-14T11:54:14.651Z,1.6
2023-08-14T12:12:51.673Z,1
2023-08-14T12:14:45.284Z,1.7
2023-08-14T12:18:53.824Z,1.6
2023-08-14T12:23:00.467Z,1.2
2023-08-14T12:24:02.110Z,1.6
2023-08-14T12:36:21.278Z,1.8
2023-08-14T12:42:29.225Z,1.5
2023-08-14T12:44:31.886Z,1.7
2023-08-14T12:46:37.661Z,1.1
2023-08-14T12:48:40.246Z,1.6
2023-08-14T12:50:42.871Z,1.1
2023-08-14T12:52:45.505Z,1.2
2023-08-14T12:54:48.143Z,2.5
2023-08-14T12:56:50.751Z,1.2
2023-08-14T12:58:54.600Z,1.3
2023-08-14T13:05:04.513Z,1.2
2023-08-14T13:09:09.839Z,0.8
2023-08-14T13:13:15.205Z,2
2023-08-14T13:17:23.690Z,1.5
2023-08-14T13:19:26.346Z,1.8
2023-08-14T13:20:29.234Z,1.5
2023-08-14T13:22:31.929Z,1.2
2023-08-14T13:24:34.618Z,1.7
2023-08-14T13:28:43.114Z,0.9
2023-08-14T13:30:45.825Z,1.3
2023-08-14T13:38:56.466Z,1
2023-08-14T13:40:59.114Z,1.2
2023-08-14T13:43:04.826Z,0.8
2023-08-14T14:01:30.981Z,1.3
2023-08-14T14:03:33.447Z,1.1
2023-08-14T14:05:35.941Z,1.1
2023-08-14T14:07:46.684Z,1
2023-08-14T14:09:41.800Z,1.6
2023-08-14T14:13:49.093Z,1.2
2023-08-14T14:18:14.779Z,0.9
2023-08-14T14:20:17.310Z,1
2023-08-14T14:22:19.875Z,1.2
2023-08-14T14:26:28.112Z,2.2
2023-08-14T14:28:30.860Z,1.1
2023-08-14T15:03:25.441Z,1.7
2023-08-14T15:12:42.833Z,1.3
2023-08-14T15:14:45.697Z,0.9
2023-08-14T15:18:51.457Z,1.4
2023-08-14T15:20:57.417Z,2.2
2023-08-14T15:23:00.301Z,1.3
2023-08-14T15:27:06.118Z,1.1
2023-08-14T15:29:09.009Z,1.1
2023-08-14T15:31:12.064Z,1.5
2023-08-14T15:33:14.821Z,1.7
2023-08-14T15:35:20.796Z,1.1
2023-08-14T15:37:23.717Z,1.4
2023-08-14T15:41:29.522Z,1.1
2023-08-14T16:04:07.722Z,1.3
2023-08-14T16:06:10.621Z,2
2023-08-14T16:09:16.508Z,1.2
2023-08-14T16:13:22.359Z,1.3
2023-08-14T16:19:34.177Z,0.9
2023-08-14T16:21:37.102Z,1.8
2023-08-14T16:23:40.009Z,1.6
2023-08-14T16:29:48.787Z,1.3
2023-08-14T16:44:12.404Z,1.3
2023-08-14T16:46:18.445Z,1.4
2023-08-14T16:48:21.319Z,1.3
2023-08-14T16:52:27.166Z,1
2023-08-14T16:54:30.077Z,1.1
2023-08-14T16:56:33.025Z,1.6
2023-08-14T17:05:50.761Z,1.4
2023-08-14T17:07:53.700Z,1.6
2023-08-14T17:09:56.590Z,1.7
2023-08-14T17:14:05.541Z,1.1
2023-08-14T17:16:08.474Z,1.1
2023-08-14T17:18:11.407Z,1.3
2023-08-14T17:20:14.303Z,1.6
2023-08-14T17:22:17.246Z,1.2
2023-08-14T17:24:20.169Z,1.4
2023-08-14T17:32:34.986Z,1.1
2023-08-14T17:34:38.721Z,2
2023-08-14T17:38:44.631Z,1.2
2023-08-14T17:49:02.474Z,2.1
2023-08-14T17:53:08.393Z,3
2023-08-14T17:57:17.411Z,1.6
2023-08-14T17:59:20.367Z,1.6
2023-08-14T18:01:23.388Z,1.1
2023-08-14T18:03:47.188Z,1.9
2023-08-14T18:07:53.032Z,1.4
2023-08-14T18:12:02.096Z,1.2
2023-08-14T18:18:11.085Z,1.2
2023-08-14T18:22:16.906Z,1.7
2023-08-14T18:24:22.924Z,1.4
2023-08-14T18:26:25.874Z,1.5
2023-08-14T18:32:34.830Z,1.2
2023-08-14T18:34:37.732Z,1.5
2023-08-14T18:36:40.734Z,1.6
2023-08-14T18:38:46.731Z,1.8
2023-08-14T18:40:49.717Z,1.4
2023-08-14T18:42:52.733Z,1.4
2023-08-14T18:44:55.702Z,1.8
2023-08-14T18:46:58.724Z,1.8
2023-08-14T18:49:01.753Z,2.1
2023-08-14T18:51:04.734Z,1.8
2023-08-14T18:53:10.793Z,1.5
2023-08-14T18:55:13.856Z,1.6
2023-08-14T18:57:17.170Z,1.4
2023-08-14T18:58:19.898Z,1.7
2023-08-14T19:00:22.957Z,1.5
2023-08-14T19:02:26.059Z,1.8
2023-08-14T19:04:40.865Z,2.1
2023-08-14T19:12:44.354Z,2.3
2023-08-14T19:14:47.419Z,2.6
2023-08-14T19:16:50.491Z,2.9
2023-08-14T19:20:59.685Z,3.1
2023-08-14T19:23:02.727Z,2.6
2023-08-14T19:25:05.820Z,3.7
2023-08-14T19:27:08.887Z,2.9
2023-08-14T19:29:11.990Z,2.7
2023-08-14T19:31:15.104Z,2.5
2023-08-14T19:35:24.296Z,3.4
2023-08-14T19:37:27.378Z,3
2023-08-14T19:39:30.475Z,2.9
2023-08-14T19:41:33.561Z,3.2
2023-08-14T19:43:36.657Z,3
2023-08-14T19:45:39.746Z,2.8
2023-08-14T19:47:42.905Z,2.8
2023-08-14T19:53:55.233Z,2.7
2023-08-14T20:01:07.608Z,2.5
2023-08-14T20:03:13.780Z,3.8
2023-08-14T20:05:16.830Z,3.2
2023-08-14T20:07:20.268Z,2.6
2023-08-14T20:09:23.114Z,2.8
2023-08-14T20:11:26.224Z,2.8
2023-08-14T20:13:29.378Z,2.8
2023-08-14T20:17:38.714Z,3.8
2023-08-14T20:19:41.807Z,3.6
2023-08-14T20:21:44.937Z,3.1
2023-08-14T20:23:48.082Z,3.2
2023-08-14T20:25:51.231Z,3.2
2023-08-14T20:27:54.387Z,4.4
2023-08-14T20:29:57.537Z,3.3
2023-08-14T20:32:03.829Z,3.2
2023-08-14T20:34:06.840Z,3
2023-08-14T20:51:39.823Z,3.8
2023-08-14T20:53:42.929Z,4.1
2023-08-14T20:57:49.306Z,3.1
2023-08-14T21:04:01.994Z,4.1
2023-08-14T21:14:20.780Z,3.9
2023-08-14T21:18:27.178Z,3.4
2023-08-14T21:22:33.594Z,3.3
2023-08-14T21:26:39.994Z,3.1
2023-08-14T21:28:46.586Z,3.2
2023-08-14T21:49:36.518Z,3.4
2023-08-14T21:51:39.800Z,3.7
2023-08-14T21:53:42.960Z,4.4
2023-08-14T21:55:49.211Z,4.2
2023-08-14T21:57:52.404Z,3.6
2023-08-14T22:01:58.857Z,3.2
2023-08-14T22:04:02.108Z,3.6
2023-08-14T22:06:05.332Z,3.4
2023-08-14T22:08:08.616Z,3.9
2023-08-14T22:10:14.861Z,3.4
2023-08-14T22:12:18.242Z,3.4
2023-08-14T22:14:21.339Z,3.6
2023-08-14T22:20:31.133Z,4.2
2023-08-14T22:22:34.459Z,3.2
2023-08-14T22:24:41.811Z,3.9
2023-08-14T22:26:44.139Z,4.2
2023-08-14T22:32:54.101Z,4.2
2023-08-14T22:37:00.608Z,3.3
2023-08-14T22:39:07.088Z,2.9
2023-08-14T22:41:10.397Z,4.2
2023-08-14T22:43:13.730Z,3.7
2023-08-14T22:44:16.964Z,3.9
2023-08-14T22:46:20.183Z,3.4
2023-08-14T22:48:23.431Z,3.1
2023-08-14T22:52:33.117Z,3.6
2023-08-14T22:54:36.381Z,3.7
2023-08-14T22:56:39.583Z,3.4
2023-08-14T22:58:42.853Z,3.9
2023-08-14T23:00:46.070Z,3.3
2023-08-14T23:02:49.422Z,3.3
2023-08-14T23:04:52.633Z,4
2023-08-14T23:06:59.020Z,3.8
2023-08-14T23:09:02.339Z,4.5
2023-08-14T23:11:05.583Z,3.2
2023-08-14T23:13:08.921Z,4.1
2023-08-14T23:15:12.252Z,4
2023-08-14T23:17:15.494Z,3.4
2023-08-14T23:19:18.846Z,3.4
2023-08-14T23:21:25.205Z,3.6
2023-08-14T23:23:28.528Z,4.1
2023-08-14T23:37:54.651Z,5.4
2023-08-14T23:39:57.993Z,3.7
2023-08-14T23:41:01.238Z,3.4
2023-08-14T23:45:07.824Z,3.2
2023-08-14T23:47:11.164Z,3.7
2023-08-14T23:49:17.439Z,3.6
2023-08-14T23:51:20.766Z,3.7
2023-08-14T23:53:24.005Z,4.4
2023-08-14T23:57:30.610Z,3.7
2023-08-14T23:59:33.958Z,3.7
